Time;durP1;ratioP1;P1;durP2;ratioP2;P2;SDS_P1;SDS_P2;PMS_P1;PMS_P2;Temp;Humidity;BMP_temperature;BMP_pressure;BME280_temperature;BME280_humidity;BME280_pressure;Samples;Min_cycle;Max_cycle;Signal;HPM_P1;HPM_P2
2024/01/18 00:00:58;;;;;;;32.58;20.55;;;;;;;;;;5050451;28;20016;-65
2024/01/18 00:03:23;;;;;;;28.10;17.75;;;;;;;;;;5051646;28;20024;-65
2024/01/18 00:05:49;;;;;;;28.85;18.52;;;;;;;;;;5051885;28;20043;-65
2024/01/18 00:08:14;;;;;;;30.67;18.77;;;;;;;;;;5049867;28;20032;-65
2024/01/18 00:10:39;;;;;;;33.70;19.42;;;;;;;;;;5050702;28;20868;-65
2024/01/18 00:13:04;;;;;;;29.98;19.23;;;;;;;;;;5049081;28;20096;-65
2024/01/18 00:15:30;;;;;;;32.92;18.40;;;;;;;;;;5048460;28;20032;-65
2024/01/18 00:17:55;;;;;;;29.70;18.63;;;;;;;;;;5042761;28;20016;-65
2024/01/18 00:20:22;;;;;;;31.33;18.23;;;;;;;;;;5056539;28;20023;-64
2024/01/18 00:22:47;;;;;;;26.05;16.27;;;;;;;;;;5063202;28;20052;-65
2024/01/18 00:25:13;;;;;;;28.50;18.17;;;;;;;;;;5062716;28;20038;-65
2024/01/18 00:27:38;;;;;;;28.80;17.98;;;;;;;;;;5071316;28;20928;-65
2024/01/18 00:30:03;;;;;;;28.45;16.65;;;;;;;;;;5048768;28;20024;-65
2024/01/18 00:32:28;;;;;;;29.38;17.30;;;;;;;;;;5051527;28;20076;-65
2024/01/18 00:34:54;;;;;;;32.53;17.85;;;;;;;;;;5052338;28;20089;-65
2024/01/18 00:37:19;;;;;;;27.05;17.60;;;;;;;;;;5060103;28;20020;-65
2024/01/18 00:39:44;;;;;;;27.75;17.80;;;;;;;;;;5061751;28;20529;-65
2024/01/18 00:42:09;;;;;;;30.88;18.35;;;;;;;;;;5046039;28;20066;-65
2024/01/18 00:44:35;;;;;;;29.75;17.27;;;;;;;;;;5046943;28;20030;-65
2024/01/18 00:47:00;;;;;;;28.05;17.77;;;;;;;;;;5047501;28;20024;-65
2024/01/18 00:49:25;;;;;;;28.33;16.88;;;;;;;;;;5046760;28;20843;-65
2024/01/18 00:51:50;;;;;;;29.08;17.05;;;;;;;;;;5048449;28;20020;-65
2024/01/18 00:54:16;;;;;;;25.42;16.38;;;;;;;;;;5054312;28;20957;-65
2024/01/18 00:56:41;;;;;;;27.05;16.05;;;;;;;;;;5059828;28;20093;-66
2024/01/18 00:59:07;;;;;;;26.85;15.73;;;;;;;;;;5074457;28;20028;-65
2024/01/18 01:01:33;;;;;;;27.65;16.92;;;;;;;;;;5048947;28;20035;-65
2024/01/18 01:03:58;;;;;;;27.00;17.75;;;;;;;;;;5054686;28;20036;-65
2024/01/18 01:06:23;;;;;;;30.73;17.60;;;;;;;;;;5055272;28;20058;-65
2024/01/18 01:08:49;;;;;;;30.15;14.73;;;;;;;;;;5053435;28;20035;-66
2024/01/18 01:11:14;;;;;;;27.73;15.20;;;;;;;;;;5049703;28;20032;-65
2024/01/18 01:13:40;;;;;;;27.00;16.88;;;;;;;;;;5048826;28;20904;-64
2024/01/18 01:16:06;;;;;;;31.08;15.55;;;;;;;;;;5058147;28;20940;-65
2024/01/18 01:18:31;;;;;;;24.25;15.60;;;;;;;;;;5049019;28;20024;-65
2024/01/18 01:20:56;;;;;;;27.25;16.23;;;;;;;;;;5071565;28;20032;-65
2024/01/18 01:23:21;;;;;;;28.27;16.40;;;;;;;;;;5058552;28;20020;-65
2024/01/18 01:25:47;;;;;;;24.50;16.45;;;;;;;;;;5046658;28;21023;-65
2024/01/18 01:28:12;;;;;;;29.45;18.15;;;;;;;;;;5056246;28;20860;-65
2024/01/18 01:30:37;;;;;;;26.48;15.85;;;;;;;;;;5047309;28;21113;-65
2024/01/18 01:33:02;;;;;;;26.92;16.88;;;;;;;;;;5060934;28;20201;-65
2024/01/18 01:35:28;;;;;;;26.02;15.75;;;;;;;;;;5044349;28;20813;-65
2024/01/18 01:37:53;;;;;;;29.73;16.70;;;;;;;;;;5050382;28;20019;-64
2024/01/18 01:40:18;;;;;;;30.48;17.23;;;;;;;;;;5060284;28;20031;-64
2024/01/18 01:42:44;;;;;;;26.63;16.42;;;;;;;;;;5051176;28;20081;-64
2024/01/18 01:45:09;;;;;;;25.55;16.73;;;;;;;;;;5051780;28;20097;-65
2024/01/18 01:47:34;;;;;;;21.95;15.75;;;;;;;;;;5055960;28;20020;-65
2024/01/18 01:50:00;;;;;;;27.35;16.00;;;;;;;;;;5054745;28;20487;-65
2024/01/18 01:52:26;;;;;;;24.63;16.30;;;;;;;;;;5044329;28;20995;-64
2024/01/18 01:54:52;;;;;;;32.75;17.77;;;;;;;;;;5058604;28;20017;-64
2024/01/18 01:57:17;;;;;;;23.83;16.10;;;;;;;;;;5070664;28;20085;-64
2024/01/18 01:59:43;;;;;;;26.95;15.93;;;;;;;;;;5059860;28;20024;-64
2024/01/18 02:02:09;;;;;;;26.13;16.83;;;;;;;;;;5049827;28;20036;-64
2024/01/18 02:04:35;;;;;;;31.80;17.75;;;;;;;;;;5047637;28;20020;-64
2024/01/18 02:07:00;;;;;;;29.13;16.55;;;;;;;;;;5047345;28;20529;-64
2024/01/18 02:09:26;;;;;;;28.95;17.30;;;;;;;;;;5050112;28;20031;-64
2024/01/18 02:11:51;;;;;;;31.63;17.85;;;;;;;;;;5046094;28;20131;-64
2024/01/18 02:14:16;;;;;;;31.40;17.58;;;;;;;;;;5052889;28;20015;-64
2024/01/18 02:16:41;;;;;;;31.33;17.70;;;;;;;;;;5051431;28;20036;-64
2024/01/18 02:19:07;;;;;;;25.80;16.70;;;;;;;;;;5049854;28;21106;-64
2024/01/18 02:21:32;;;;;;;27.08;17.10;;;;;;;;;;5054812;28;20032;-65
2024/01/18 02:23:59;;;;;;;25.70;17.48;;;;;;;;;;5065529;28;20081;-64
2024/01/18 02:26:25;;;;;;;28.33;15.98;;;;;;;;;;5054197;28;20042;-64
2024/01/18 02:28:54;;;;;;;26.27;16.20;;;;;;;;;;5063451;28;20440;-64
2024/01/18 02:31:19;;;;;;;35.95;19.58;;;;;;;;;;5051066;28;21018;-65
2024/01/18 02:33:45;;;;;;;26.10;17.13;;;;;;;;;;5056044;28;20028;-64
2024/01/18 02:36:10;;;;;;;27.33;16.60;;;;;;;;;;5053691;28;20839;-64
2024/01/18 02:38:35;;;;;;;29.27;16.52;;;;;;;;;;5051125;28;20915;-65
2024/01/18 02:41:01;;;;;;;30.02;16.65;;;;;;;;;;5062626;28;20123;-65
2024/01/18 02:43:26;;;;;;;34.08;17.55;;;;;;;;;;5070535;28;20020;-64
2024/01/18 02:45:51;;;;;;;33.15;18.30;;;;;;;;;;5050813;28;20032;-65
2024/01/18 02:48:17;;;;;;;26.52;16.25;;;;;;;;;;5052976;28;20031;-64
2024/01/18 02:50:42;;;;;;;23.70;16.70;;;;;;;;;;5064612;28;20139;-64
2024/01/18 02:53:07;;;;;;;26.02;17.23;;;;;;;;;;5067560;28;20535;-64
2024/01/18 02:55:32;;;;;;;27.42;16.45;;;;;;;;;;5052647;28;20023;-65
2024/01/18 02:57:57;;;;;;;32.90;17.73;;;;;;;;;;5055740;28;20024;-65
2024/01/18 03:00:23;;;;;;;30.60;17.48;;;;;;;;;;5047402;28;20020;-65
2024/01/18 03:02:48;;;;;;;33.92;17.50;;;;;;;;;;5053533;28;20904;-65
2024/01/18 03:05:13;;;;;;;28.58;16.83;;;;;;;;;;5064154;28;20881;-65
2024/01/18 03:07:38;;;;;;;28.10;17.00;;;;;;;;;;5059369;28;20027;-65
2024/01/18 03:10:04;;;;;;;30.33;16.83;;;;;;;;;;5047301;28;20024;-65
2024/01/18 03:12:29;;;;;;;29.55;17.95;;;;;;;;;;5071040;28;20027;-65
2024/01/18 03:14:54;;;;;;;28.25;18.75;;;;;;;;;;5067885;28;20491;-65
2024/01/18 03:17:19;;;;;;;25.15;16.75;;;;;;;;;;5046286;28;20858;-65
2024/01/18 03:19:44;;;;;;;30.40;18.75;;;;;;;;;;5048642;28;20839;-65
2024/01/18 03:22:10;;;;;;;30.83;16.98;;;;;;;;;;5054267;28;20309;-65
2024/01/18 03:24:35;;;;;;;30.42;17.55;;;;;;;;;;5057405;28;20051;-66
2024/01/18 03:27:00;;;;;;;26.23;16.55;;;;;;;;;;5059517;28;20031;-65
2024/01/18 03:29:25;;;;;;;27.75;16.98;;;;;;;;;;5053115;28;20253;-65
2024/01/18 03:31:51;;;;;;;29.33;17.88;;;;;;;;;;5074690;28;20048;-64
2024/01/18 03:34:16;;;;;;;24.50;15.90;;;;;;;;;;5055054;28;20047;-64
2024/01/18 03:36:41;;;;;;;24.13;15.98;;;;;;;;;;5053469;28;20123;-65
2024/01/18 03:39:06;;;;;;;32.75;17.00;;;;;;;;;;5070609;28;20085;-64
2024/01/18 03:41:32;;;;;;;28.75;17.63;;;;;;;;;;5058152;28;20032;-65
2024/01/18 03:43:57;;;;;;;28.52;17.27;;;;;;;;;;5053532;28;20026;-64
2024/01/18 03:46:22;;;;;;;29.20;18.08;;;;;;;;;;5054850;28;20042;-64
2024/01/18 03:48:47;;;;;;;31.60;18.75;;;;;;;;;;5055520;28;20020;-64
2024/01/18 03:51:12;;;;;;;33.75;18.05;;;;;;;;;;5066885;28;20078;-64
2024/01/18 03:53:41;;;;;;;25.73;17.30;;;;;;;;;;5053730;28;20020;-64
2024/01/18 03:56:06;;;;;;;24.80;16.77;;;;;;;;;;5056650;28;20073;-64
2024/01/18 03:58:31;;;;;;;28.27;17.40;;;;;;;;;;5067239;28;20032;-64
2024/01/18 04:00:56;;;;;;;29.75;18.58;;;;;;;;;;5054899;28;20073;-64
2024/01/18 04:03:22;;;;;;;27.80;16.05;;;;;;;;;;5058554;28;20124;-64
2024/01/18 04:05:47;;;;;;;23.05;15.93;;;;;;;;;;5058880;28;20039;-65
2024/01/18 04:08:12;;;;;;;29.33;17.10;;;;;;;;;;5056527;28;20028;-64
2024/01/18 04:10:37;;;;;;;24.95;16.35;;;;;;;;;;5057120;28;20930;-65
2024/01/18 04:13:03;;;;;;;26.45;16.08;;;;;;;;;;5054706;28;20885;-66
2024/01/18 04:15:28;;;;;;;32.83;18.02;;;;;;;;;;5063674;28;20036;-65
2024/01/18 04:17:53;;;;;;;26.23;17.55;;;;;;;;;;5057071;28;20020;-65
2024/01/18 04:20:23;;;;;;;29.08;18.90;;;;;;;;;;5052685;28;20036;-66
2024/01/18 04:22:48;;;;;;;29.13;17.48;;;;;;;;;;5055507;28;20039;-66
2024/01/18 04:25:13;;;;;;;29.75;16.90;;;;;;;;;;5056325;28;20088;-65
2024/01/18 04:27:39;;;;;;;28.50;17.17;;;;;;;;;;5075357;28;20049;-65
2024/01/18 04:30:04;;;;;;;27.13;17.00;;;;;;;;;;5053040;28;20020;-65
2024/01/18 04:32:30;;;;;;;28.42;17.60;;;;;;;;;;5052437;28;20052;-66
2024/01/18 04:34:55;;;;;;;31.10;17.67;;;;;;;;;;5044880;28;20790;-65
2024/01/18 04:37:20;;;;;;;32.05;17.65;;;;;;;;;;5033311;28;20920;-65
2024/01/18 04:39:45;;;;;;;28.85;16.83;;;;;;;;;;5043862;28;20025;-65
2024/01/18 04:42:11;;;;;;;29.15;17.35;;;;;;;;;;5056768;28;20024;-65
2024/01/18 04:44:38;;;;;;;30.90;16.55;;;;;;;;;;5057870;28;20051;-65
2024/01/18 04:47:03;;;;;;;28.23;17.70;;;;;;;;;;5050717;28;20071;-66
2024/01/18 04:49:28;;;;;;;31.13;17.52;;;;;;;;;;5041420;28;20081;-66
2024/01/18 04:51:54;;;;;;;27.90;17.92;;;;;;;;;;5038895;28;20037;-66
2024/01/18 04:54:19;;;;;;;27.83;17.25;;;;;;;;;;5070917;28;20085;-65
2024/01/18 04:56:45;;;;;;;27.38;18.60;;;;;;;;;;5074268;28;20039;-66
2024/01/18 04:59:10;;;;;;;30.73;17.60;;;;;;;;;;5064683;28;20071;-66
2024/01/18 05:01:39;;;;;;;27.00;16.95;;;;;;;;;;5048875;28;20101;-65
2024/01/18 05:04:04;;;;;;;27.10;17.00;;;;;;;;;;5060022;28;20069;-65
2024/01/18 05:06:30;;;;;;;25.98;17.52;;;;;;;;;;5055964;28;20899;-65
2024/01/18 05:08:55;;;;;;;28.23;17.02;;;;;;;;;;5061953;28;20150;-65
2024/01/18 05:11:20;;;;;;;29.48;17.77;;;;;;;;;;5061563;28;20028;-65
2024/01/18 05:13:45;;;;;;;30.50;17.95;;;;;;;;;;5053139;28;20027;-65
2024/01/18 05:16:11;;;;;;;30.42;18.25;;;;;;;;;;5054749;28;20147;-65
2024/01/18 05:18:36;;;;;;;31.60;19.00;;;;;;;;;;5059268;28;20024;-65
2024/01/18 05:21:01;;;;;;;31.13;18.25;;;;;;;;;;5056853;28;20037;-65
2024/01/18 05:23:26;;;;;;;34.90;19.63;;;;;;;;;;5074020;28;20409;-65
2024/01/18 05:25:52;;;;;;;31.27;17.67;;;;;;;;;;5054212;28;20031;-65
2024/01/18 05:28:17;;;;;;;29.27;17.48;;;;;;;;;;5060451;28;20031;-65
2024/01/18 05:30:42;;;;;;;32.35;17.45;;;;;;;;;;5055172;28;20093;-65
2024/01/18 05:33:07;;;;;;;28.35;17.02;;;;;;;;;;5073286;28;20376;-65
2024/01/18 05:35:33;;;;;;;27.08;17.73;;;;;;;;;;5067833;28;20054;-65
2024/01/18 05:37:58;;;;;;;33.17;17.95;;;;;;;;;;5070120;28;20111;-65
2024/01/18 05:40:23;;;;;;;25.95;16.60;;;;;;;;;;5062295;28;20016;-65
2024/01/18 05:42:48;;;;;;;28.67;17.52;;;;;;;;;;5059266;28;20018;-65
2024/01/18 05:45:14;;;;;;;28.80;17.80;;;;;;;;;;5052142;28;20075;-65
2024/01/18 05:47:40;;;;;;;27.08;16.67;;;;;;;;;;5054774;28;20031;-66
2024/01/18 05:50:06;;;;;;;28.85;17.05;;;;;;;;;;5068865;28;20035;-65
2024/01/18 05:52:31;;;;;;;26.67;17.75;;;;;;;;;;5072790;28;20858;-65
2024/01/18 05:54:58;;;;;;;28.55;17.50;;;;;;;;;;5077941;28;20024;-65
2024/01/18 05:57:24;;;;;;;28.08;17.60;;;;;;;;;;5079825;28;20035;-66
2024/01/18 05:59:49;;;;;;;30.63;18.02;;;;;;;;;;5059868;28;20032;-66
2024/01/18 06:02:15;;;;;;;27.55;16.70;;;;;;;;;;5059780;28;20046;-65
2024/01/18 06:04:40;;;;;;;27.08;16.90;;;;;;;;;;5056053;28;20020;-65
2024/01/18 06:07:06;;;;;;;29.38;17.50;;;;;;;;;;5076154;28;20507;-65
2024/01/18 06:09:31;;;;;;;27.23;16.17;;;;;;;;;;5057678;28;20032;-65
2024/01/18 06:11:56;;;;;;;30.48;18.55;;;;;;;;;;5055148;28;20028;-65
2024/01/18 06:14:22;;;;;;;31.33;18.63;;;;;;;;;;5063700;28;20028;-65
2024/01/18 06:16:47;;;;;;;28.42;16.88;;;;;;;;;;5063518;28;20040;-65
2024/01/18 06:19:12;;;;;;;30.50;18.38;;;;;;;;;;5064827;28;20813;-65
2024/01/18 06:21:38;;;;;;;25.85;17.42;;;;;;;;;;5052954;28;20060;-66
2024/01/18 06:24:03;;;;;;;27.05;17.17;;;;;;;;;;5061690;28;20024;-65
2024/01/18 06:26:28;;;;;;;25.95;16.85;;;;;;;;;;5067606;28;20047;-65
2024/01/18 06:28:53;;;;;;;26.17;16.52;;;;;;;;;;5057862;28;20123;-65
2024/01/18 06:31:22;;;;;;;31.08;18.10;;;;;;;;;;5065395;28;20059;-65
2024/01/18 06:33:47;;;;;;;24.38;17.13;;;;;;;;;;5078452;28;20101;-65
2024/01/18 06:36:14;;;;;;;27.55;15.75;;;;;;;;;;5062227;28;20024;-66
2024/01/18 06:38:39;;;;;;;26.90;16.73;;;;;;;;;;5053706;28;20016;-65
2024/01/18 06:41:05;;;;;;;22.92;16.13;;;;;;;;;;5068804;28;20386;-67
2024/01/18 06:43:30;;;;;;;26.42;16.88;;;;;;;;;;5066502;28;20032;-66
2024/01/18 06:45:55;;;;;;;33.25;17.80;;;;;;;;;;5062429;28;20237;-66
2024/01/18 06:48:21;;;;;;;28.25;16.10;;;;;;;;;;5060900;28;20062;-66
2024/01/18 06:50:46;;;;;;;29.80;17.00;;;;;;;;;;5060587;28;20085;-66
2024/01/18 06:53:12;;;;;;;23.48;14.82;;;;;;;;;;5077601;28;20033;-66
2024/01/18 06:55:37;;;;;;;37.13;18.60;;;;;;;;;;5051833;28;20870;-65
2024/01/18 06:58:03;;;;;;;34.88;17.50;;;;;;;;;;5073909;28;20863;-66
2024/01/18 07:00:28;;;;;;;33.30;19.05;;;;;;;;;;5066765;28;20097;-66
2024/01/18 07:02:54;;;;;;;26.48;15.77;;;;;;;;;;5070493;28;20893;-65
2024/01/18 07:05:20;;;;;;;24.85;14.35;;;;;;;;;;5056982;28;20032;-65
2024/01/18 07:07:45;;;;;;;33.90;16.92;;;;;;;;;;5066254;28;20031;-65
2024/01/18 07:10:10;;;;;;;27.67;14.95;;;;;;;;;;5076506;28;20773;-67
2024/01/18 07:12:36;;;;;;;21.85;13.43;;;;;;;;;;5069363;28;20023;-65
2024/01/18 07:15:01;;;;;;;24.60;14.88;;;;;;;;;;5044879;28;20036;-65
2024/01/18 07:17:29;;;;;;;24.38;13.07;;;;;;;;;;5044316;28;20949;-65
2024/01/18 07:19:56;;;;;;;25.48;13.80;;;;;;;;;;5043159;28;20134;-66
2024/01/18 07:22:21;;;;;;;26.25;14.18;;;;;;;;;;5044511;28;20027;-65
2024/01/18 07:24:47;;;;;;;23.52;13.50;;;;;;;;;;5043772;28;20016;-65
2024/01/18 07:27:12;;;;;;;22.95;13.25;;;;;;;;;;5038796;28;20891;-66
2024/01/18 07:29:37;;;;;;;24.33;14.25;;;;;;;;;;5040874;28;20040;-66
2024/01/18 07:32:03;;;;;;;35.05;20.95;;;;;;;;;;5045777;28;20949;-65
2024/01/18 07:34:28;;;;;;;31.27;19.73;;;;;;;;;;5046011;28;20127;-65
2024/01/18 07:36:54;;;;;;;33.22;18.00;;;;;;;;;;5045329;28;20865;-65
2024/01/18 07:39:20;;;;;;;26.70;15.57;;;;;;;;;;5046061;28;20066;-65
2024/01/18 07:41:45;;;;;;;28.08;14.52;;;;;;;;;;5047702;28;20877;-65
2024/01/18 07:44:11;;;;;;;28.20;13.77;;;;;;;;;;5043045;28;20143;-66
2024/01/18 07:46:36;;;;;;;32.20;15.55;;;;;;;;;;5044933;28;20035;-66
2024/01/18 07:49:02;;;;;;;31.92;18.40;;;;;;;;;;5042545;28;20028;-66
2024/01/18 07:51:28;;;;;;;31.85;19.10;;;;;;;;;;5045172;28;20143;-66
2024/01/18 07:53:53;;;;;;;30.48;17.00;;;;;;;;;;5046187;28;20026;-66
2024/01/18 07:56:18;;;;;;;33.40;18.33;;;;;;;;;;5041535;28;20056;-66
2024/01/18 07:58:43;;;;;;;29.60;14.85;;;;;;;;;;5044359;28;20833;-66
2024/01/18 08:01:09;;;;;;;40.45;18.83;;;;;;;;;;5046171;28;20024;-66
2024/01/18 08:03:34;;;;;;;28.55;14.55;;;;;;;;;;5047367;28;20093;-66
2024/01/18 08:05:59;;;;;;;26.50;14.63;;;;;;;;;;5047050;28;20112;-66
2024/01/18 08:08:24;;;;;;;48.15;19.60;;;;;;;;;;5046391;28;20028;-66
2024/01/18 08:10:50;;;;;;;40.58;18.23;;;;;;;;;;5047853;28;20028;-66
2024/01/18 08:13:15;;;;;;;32.20;16.45;;;;;;;;;;5045789;28;20024;-66
2024/01/18 08:15:41;;;;;;;36.35;16.55;;;;;;;;;;5044496;28;20020;-66
2024/01/18 08:18:06;;;;;;;32.42;17.52;;;;;;;;;;5043083;28;20032;-66
2024/01/18 08:20:31;;;;;;;31.63;16.45;;;;;;;;;;5044404;28;20040;-66
2024/01/18 08:22:57;;;;;;;29.88;16.65;;;;;;;;;;5046090;28;20123;-66
2024/01/18 08:25:22;;;;;;;23.05;13.77;;;;;;;;;;5045941;28;20074;-66
2024/01/18 08:27:47;;;;;;;31.05;15.30;;;;;;;;;;5044395;28;20027;-66
2024/01/18 08:30:13;;;;;;;27.60;14.63;;;;;;;;;;5044334;28;20993;-66
2024/01/18 08:32:38;;;;;;;19.75;12.90;;;;;;;;;;5044582;28;21014;-66
2024/01/18 08:35:06;;;;;;;21.23;12.45;;;;;;;;;;5045703;28;20036;-66
2024/01/18 08:37:32;;;;;;;23.10;12.35;;;;;;;;;;5044475;28;20131;-66
2024/01/18 08:39:57;;;;;;;19.27;12.43;;;;;;;;;;5045514;28;20078;-67
2024/01/18 08:42:23;;;;;;;23.73;12.40;;;;;;;;;;5044943;28;20045;-66
2024/01/18 08:44:48;;;;;;;20.77;12.60;;;;;;;;;;5045476;28;20142;-66
2024/01/18 08:47:13;;;;;;;26.77;14.80;;;;;;;;;;5043896;28;20028;-66
2024/01/18 08:49:38;;;;;;;23.33;12.00;;;;;;;;;;5042818;28;20024;-66
2024/01/18 08:52:04;;;;;;;21.77;13.23;;;;;;;;;;5044158;28;20816;-66
2024/01/18 08:54:30;;;;;;;26.42;14.32;;;;;;;;;;5051391;28;20951;-66
2024/01/18 08:56:55;;;;;;;24.23;12.82;;;;;;;;;;5043902;28;20024;-66
2024/01/18 08:59:20;;;;;;;25.58;14.45;;;;;;;;;;5044914;28;20048;-66
2024/01/18 09:01:47;;;;;;;28.08;14.23;;;;;;;;;;5044528;28;20139;-66
2024/01/18 09:04:12;;;;;;;29.02;15.50;;;;;;;;;;5042963;28;20061;-66
2024/01/18 09:06:37;;;;;;;25.38;14.25;;;;;;;;;;5044242;28;20043;-67
2024/01/18 09:09:03;;;;;;;27.13;14.90;;;;;;;;;;5042799;28;20953;-67
2024/01/18 09:11:29;;;;;;;34.95;15.55;;;;;;;;;;5043571;28;20113;-65
2024/01/18 09:13:54;;;;;;;25.83;16.08;;;;;;;;;;5042483;28;20027;-66
2024/01/18 09:16:19;;;;;;;26.42;14.80;;;;;;;;;;5044326;28;20056;-66
2024/01/18 09:18:44;;;;;;;27.38;16.05;;;;;;;;;;5043573;28;20016;-66
2024/01/18 09:21:09;;;;;;;26.02;15.60;;;;;;;;;;5044008;28;20053;-66
2024/01/18 09:23:36;;;;;;;25.80;13.40;;;;;;;;;;5043464;28;20031;-66
2024/01/18 09:26:01;;;;;;;32.90;18.65;;;;;;;;;;5043640;28;21203;-66
2024/01/18 09:28:27;;;;;;;22.52;15.57;;;;;;;;;;5042552;28;20016;-66
2024/01/18 09:30:52;;;;;;;22.95;14.38;;;;;;;;;;5043656;28;20036;-66
2024/01/18 09:33:18;;;;;;;26.90;15.88;;;;;;;;;;5047490;28;20028;-66
2024/01/18 09:35:44;;;;;;;23.73;15.32;;;;;;;;;;5043019;28;20020;-66
2024/01/18 09:38:10;;;;;;;25.85;16.80;;;;;;;;;;5044398;28;20034;-66
2024/01/18 09:40:35;;;;;;;23.85;15.23;;;;;;;;;;5044577;28;20028;-66
2024/01/18 09:43:07;;;;;;;25.33;16.52;;;;;;;;;;5046542;28;20077;-66
2024/01/18 09:45:33;;;;;;;30.00;15.18;;;;;;;;;;5045355;28;20046;-66
2024/01/18 09:47:58;;;;;;;24.67;15.48;;;;;;;;;;5044010;28;20125;-66
2024/01/18 09:50:24;;;;;;;22.23;13.95;;;;;;;;;;5046140;28;20941;-66
2024/01/18 09:52:50;;;;;;;20.65;13.98;;;;;;;;;;5044606;28;20085;-65
2024/01/18 09:55:15;;;;;;;26.02;14.43;;;;;;;;;;5045593;28;20028;-66
2024/01/18 09:57:47;;;;;;;28.15;13.85;;;;;;;;;;5041494;28;20020;-66
2024/01/18 10:00:14;;;;;;;25.40;14.30;;;;;;;;;;5043864;28;20869;-65
2024/01/18 10:02:39;;;;;;;27.20;11.90;;;;;;;;;;5044788;28;20020;-66
2024/01/18 10:05:04;;;;;;;23.92;13.50;;;;;;;;;;5046025;28;20039;-66
2024/01/18 10:07:30;;;;;;;18.77;9.90;;;;;;;;;;5043492;28;20036;-65
2024/01/18 10:09:55;;;;;;;24.88;12.70;;;;;;;;;;5040325;28;20898;-65
2024/01/18 10:12:20;;;;;;;22.02;12.10;;;;;;;;;;5044045;28;20046;-65
2024/01/18 10:14:46;;;;;;;18.42;11.48;;;;;;;;;;5043566;28;20052;-65
2024/01/18 10:17:29;;;;;;;16.25;10.40;;;;;;;;;;5043396;28;20020;-65
2024/01/18 10:19:55;;;;;;;18.60;11.70;;;;;;;;;;5044034;28;20054;-65
2024/01/18 10:22:21;;;;;;;19.48;12.23;;;;;;;;;;5044884;28;20020;-65
2024/01/18 10:24:46;;;;;;;17.92;10.85;;;;;;;;;;5043898;28;20025;-65
2024/01/18 10:27:12;;;;;;;19.77;12.35;;;;;;;;;;5044408;28;20094;-66
2024/01/18 10:29:38;;;;;;;23.42;12.98;;;;;;;;;;5042317;28;20148;-66
2024/01/18 10:32:04;;;;;;;17.77;11.48;;;;;;;;;;5044124;28;20792;-65
2024/01/18 10:34:36;;;;;;;22.55;11.68;;;;;;;;;;5027159;28;20071;-66
2024/01/18 10:37:02;;;;;;;18.20;12.10;;;;;;;;;;5043590;28;20020;-67
2024/01/18 10:39:36;;;;;;;18.95;11.23;;;;;;;;;;5047960;28;20024;-66
2024/01/18 10:42:07;;;;;;;18.92;9.15;;;;;;;;;;5047786;28;20085;-66
2024/01/18 10:44:32;;;;;;;17.60;9.00;;;;;;;;;;5039928;28;20020;-66
2024/01/18 10:46:57;;;;;;;16.27;8.70;;;;;;;;;;5078185;28;20027;-66
2024/01/18 10:49:23;;;;;;;14.55;7.90;;;;;;;;;;5081076;28;20085;-68
2024/01/18 10:51:50;;;;;;;15.98;8.20;;;;;;;;;;5057617;28;20027;-67
2024/01/18 10:54:16;;;;;;;12.90;8.43;;;;;;;;;;5069110;28;20028;-66
2024/01/18 10:56:41;;;;;;;16.00;7.07;;;;;;;;;;5060615;28;20056;-66
2024/01/18 10:59:07;;;;;;;11.13;6.32;;;;;;;;;;5086959;28;20067;-66
2024/01/18 11:01:33;;;;;;;14.00;7.18;;;;;;;;;;5081214;28;20043;-66
2024/01/18 11:03:59;;;;;;;12.57;6.45;;;;;;;;;;5066680;28;20131;-66
2024/01/18 11:06:25;;;;;;;13.45;7.65;;;;;;;;;;5047682;28;20120;-67
2024/01/18 11:08:50;;;;;;;17.88;8.05;;;;;;;;;;5067786;28;20032;-67
2024/01/18 11:11:16;;;;;;;15.90;8.23;;;;;;;;;;5079691;28;20082;-67
2024/01/18 11:13:41;;;;;;;8.93;6.32;;;;;;;;;;5088111;28;20461;-67
2024/01/18 11:16:07;;;;;;;12.30;5.97;;;;;;;;;;5069347;28;20036;-67
2024/01/18 11:18:34;;;;;;;12.32;6.32;;;;;;;;;;5074261;28;20032;-67
2024/01/18 11:21:00;;;;;;;13.82;5.57;;;;;;;;;;5068567;28;20020;-67
2024/01/18 11:23:26;;;;;;;8.82;5.60;;;;;;;;;;5080440;28;20024;-70
2024/01/18 11:25:52;;;;;;;8.65;5.60;;;;;;;;;;5061086;28;20032;-67
2024/01/18 11:28:26;;;;;;;8.65;5.65;;;;;;;;;;5077717;28;20059;-67
2024/01/18 11:30:52;;;;;;;11.25;4.85;;;;;;;;;;5052086;28;20071;-66
2024/01/18 11:33:18;;;;;;;11.23;4.45;;;;;;;;;;5061895;28;20028;-67
2024/01/18 11:35:43;;;;;;;7.85;4.88;;;;;;;;;;5060394;28;20070;-65
2024/01/18 11:38:25;;;;;;;10.68;4.20;;;;;;;;;;5068635;28;20024;-65
2024/01/18 11:40:57;;;;;;;9.23;4.78;;;;;;;;;;5075620;28;20382;-65
2024/01/18 11:43:23;;;;;;;10.35;4.03;;;;;;;;;;5082722;28;20031;-65
2024/01/18 11:45:52;;;;;;;7.90;4.18;;;;;;;;;;5045844;28;20022;-65
2024/01/18 11:48:18;;;;;;;10.40;4.20;;;;;;;;;;5075183;28;20474;-65
2024/01/18 11:50:44;;;;;;;9.23;3.90;;;;;;;;;;5083843;28;20032;-65
2024/01/18 11:53:09;;;;;;;6.10;3.83;;;;;;;;;;5079678;28;20024;-65
2024/01/18 11:55:37;;;;;;;7.07;3.83;;;;;;;;;;5081115;28;20051;-65
2024/01/18 11:58:02;;;;;;;10.88;5.03;;;;;;;;;;5068115;28;20858;-65
2024/01/18 12:00:28;;;;;;;7.95;4.35;;;;;;;;;;5064321;28;20024;-65
2024/01/18 12:02:54;;;;;;;6.57;3.85;;;;;;;;;;5046501;28;20048;-65
2024/01/18 12:05:19;;;;;;;8.95;3.65;;;;;;;;;;5047227;28;20844;-65
2024/01/18 12:07:45;;;;;;;7.07;3.70;;;;;;;;;;5049388;28;20083;-65
2024/01/18 12:10:10;;;;;;;11.90;3.95;;;;;;;;;;5071087;28;20394;-64
2024/01/18 12:12:36;;;;;;;5.70;3.47;;;;;;;;;;5073923;28;20131;-65
2024/01/18 12:15:01;;;;;;;6.18;3.15;;;;;;;;;;5078721;28;20366;-64
2024/01/18 12:17:27;;;;;;;5.88;3.60;;;;;;;;;;5087453;28;20855;-65
2024/01/18 12:19:52;;;;;;;5.93;3.35;;;;;;;;;;5075236;28;20126;-65
2024/01/18 12:22:18;;;;;;;5.05;3.00;;;;;;;;;;5056359;28;20024;-65
2024/01/18 12:24:44;;;;;;;6.50;3.55;;;;;;;;;;5067628;28;20062;-65
2024/01/18 12:27:10;;;;;;;5.65;3.25;;;;;;;;;;5043484;28;20042;-65
2024/01/18 12:29:39;;;;;;;10.50;3.10;;;;;;;;;;5066030;28;20386;-65
2024/01/18 12:32:04;;;;;;;7.57;3.50;;;;;;;;;;5063700;28;20055;-65
2024/01/18 12:34:32;;;;;;;6.25;3.03;;;;;;;;;;5056800;28;20018;-64
2024/01/18 12:36:57;;;;;;;6.32;3.05;;;;;;;;;;5087063;28;20024;-64
2024/01/18 12:39:23;;;;;;;5.47;3.33;;;;;;;;;;5063709;28;20020;-64
2024/01/18 12:41:52;;;;;;;6.32;2.80;;;;;;;;;;5043055;28;20008;-64
2024/01/18 12:44:18;;;;;;;6.85;3.50;;;;;;;;;;5045718;28;20898;-65
2024/01/18 12:46:43;;;;;;;6.78;2.90;;;;;;;;;;5046056;28;20048;-65
2024/01/18 12:49:11;;;;;;;8.40;2.85;;;;;;;;;;5047811;28;20028;-64
2024/01/18 12:51:36;;;;;;;6.65;3.17;;;;;;;;;;5077764;28;20024;-67
2024/01/18 12:54:02;;;;;;;6.43;3.40;;;;;;;;;;5083917;28;20039;-64
2024/01/18 12:56:27;;;;;;;9.60;4.00;;;;;;;;;;5057398;28;20028;-64
2024/01/18 12:58:52;;;;;;;5.15;3.17;;;;;;;;;;5053353;28;20149;-65
2024/01/18 13:01:24;;;;;;;7.53;3.50;;;;;;;;;;5052334;28;20081;-66
2024/01/18 13:03:49;;;;;;;7.47;3.03;;;;;;;;;;5053316;28;20077;-65
2024/01/18 13:06:15;;;;;;;4.75;2.97;;;;;;;;;;5072059;28;20596;-64
2024/01/18 13:08:41;;;;;;;5.97;2.97;;;;;;;;;;5053820;28;20063;-64
2024/01/18 13:11:06;;;;;;;4.95;3.05;;;;;;;;;;5068208;28;20551;-64
2024/01/18 13:13:32;;;;;;;9.70;3.88;;;;;;;;;;5056321;28;20056;-64
2024/01/18 13:15:57;;;;;;;13.40;4.60;;;;;;;;;;5068376;28;20035;-62
2024/01/18 13:18:25;;;;;;;22.17;10.32;;;;;;;;;;5058245;28;20939;-64
2024/01/18 13:20:51;;;;;;;20.17;6.50;;;;;;;;;;5087254;28;20474;-64
2024/01/18 13:23:16;;;;;;;11.07;5.82;;;;;;;;;;5075081;28;20035;-62
2024/01/18 13:25:42;;;;;;;13.77;4.18;;;;;;;;;;5082294;28;20101;-62
2024/01/18 13:28:07;;;;;;;9.73;3.30;;;;;;;;;;5062073;28;20166;-64
2024/01/18 13:30:32;;;;;;;5.35;2.80;;;;;;;;;;5077525;28;20394;-65
2024/01/18 13:32:57;;;;;;;4.72;2.25;;;;;;;;;;5067098;28;20131;-64
2024/01/18 13:35:23;;;;;;;4.72;3.03;;;;;;;;;;5050376;28;20036;-65
2024/01/18 13:37:48;;;;;;;6.30;3.55;;;;;;;;;;5057835;28;20043;-64
2024/01/18 13:40:13;;;;;;;5.85;2.95;;;;;;;;;;5038410;28;20031;-65
2024/01/18 13:42:38;;;;;;;8.40;3.08;;;;;;;;;;5032574;28;20020;-65
2024/01/18 13:45:04;;;;;;;3.67;2.03;;;;;;;;;;5047810;28;20032;-65
2024/01/18 13:47:29;;;;;;;5.68;2.53;;;;;;;;;;5051515;28;20991;-65
2024/01/18 13:49:54;;;;;;;5.93;2.85;;;;;;;;;;5078418;28;20062;-65
2024/01/18 13:52:20;;;;;;;6.70;2.55;;;;;;;;;;5050142;28;20028;-64
2024/01/18 13:54:45;;;;;;;5.10;2.60;;;;;;;;;;5044696;28;20016;-65
2024/01/18 13:57:11;;;;;;;4.75;2.92;;;;;;;;;;5075388;28;20872;-65
2024/01/18 13:59:36;;;;;;;6.40;2.78;;;;;;;;;;5042715;28;20658;-64
2024/01/18 14:02:01;;;;;;;4.93;3.00;;;;;;;;;;5067940;28;20024;-65
2024/01/18 14:04:26;;;;;;;6.75;2.40;;;;;;;;;;5090633;28;20020;-65
2024/01/18 14:06:52;;;;;;;5.65;2.80;;;;;;;;;;5089334;28;20303;-65
2024/01/18 14:09:17;;;;;;;5.38;2.80;;;;;;;;;;5092512;28;20032;-64
2024/01/18 14:11:42;;;;;;;7.47;3.22;;;;;;;;;;5092822;28;20107;-65
2024/01/18 14:14:08;;;;;;;6.93;3.20;;;;;;;;;;5092450;28;20059;-64